Aeroporto :
LOGIN :

Iscrizione | Disclaimer

   EN    FR    IT 

 










Sommario :    VFR   VFR Marginale   IFR   IFR Intensivo   IFR Molto Intensivo
Visibilità : 
Base nubi : 
>= 8 km
>= 3000ft
5 / 8 km
1000 / 3000 ft
1500m / 5 km
500 / 1000 ft
800 / 1500m
200 / 500 ft
< 800m
< 200 ft
Simboli :   Temporali  Nebbia  Neve Forte  Precipitazioni Forti  Vento > 20 kt
SIGMETs :   Varie  Temporali  Ghiacco  Turbolenza  Onda orograficha  Ceneri Vulcaniche






- Altitudine del aeroporto : 72 ft
- Codice IATA : UDE


EHVK - Volkel Airbase

ULTIMO METAR :
  • 191755Z AUTO 20002KT 9999 OVC048 03/03 Q1018 BLU

METARs OBSOLETI :
  • 191725Z AUTO 20001KT 9999 SCT042 03/03 Q1018 BLU
  • 191655Z AUTO 21003KT 9999 SCT033 SCT091 04/03 Q1018 BLU
  • 191625Z AUTO 25002KT 9999 FEW040 BKN049 BKN080 04/03 Q1017 BLU
  • 191555Z AUTO 24004KT 9999 BKN041 05/03 Q1017 BLU
  • 191525Z AUTO 24005KT 9999 FEW056 OVC090 06/04 Q1017 BLU

TAF TAF EHVK
Valido dal 19 a 18 ore il 20 a 06 ore UTC


191708Z 1918/2006 VRB03KT 9999 FEW040
BECMG 1919/1922 VRB02KT 4000 BR MIFG
BECMG 1922/2001 2000
TEMPO 2000/2006 0800 FZFG



MetMap, La meteo Aeronautica in un colpo d'occhio ! - Copyright ORBIFLY Dicembre 2007 - Disclaimer

ORBIFLY MET'MAP TEAM :

Programmazione e sviluppo : Alexandra Zaïnal
Concezione e sviluppo : Baudouin d'Aumeries
Co-Programmazione e sviluppo : Marc-Olivier Méhu
Supporto tecnico e logistico : Manuel Goepfert
Aiuto per la traduzione : Arnaldo La Scala

Contatto : metmap@orbifly.com




FONTI E CREDITI :

   NOAA